createdAt,value
2022-11-18T00:04:44.940Z,8.17
2022-11-18T00:09:46.700Z,8.40
2022-11-18T00:14:48.449Z,9.10
2022-11-18T00:19:51.562Z,7.97
2022-11-18T00:24:53.380Z,8.50
2022-11-18T00:29:55.200Z,8.00
2022-11-18T00:34:58.329Z,8.17
2022-11-18T00:40:00.054Z,9.00
2022-11-18T00:45:01.791Z,8.70
2022-11-18T00:50:05.859Z,9.70
2022-11-18T00:55:08.428Z,10.20
2022-11-18T01:00:10.783Z,11.10
2022-11-18T01:05:13.894Z,10.40
2022-11-18T01:10:16.418Z,10.47
2022-11-18T01:15:18.170Z,11.77
2022-11-18T01:20:21.278Z,11.67
2022-11-18T01:25:23.043Z,12.57
2022-11-18T01:30:24.832Z,12.50
2022-11-18T01:35:28.066Z,12.77
2022-11-18T01:40:29.804Z,13.30
2022-11-18T01:45:33.191Z,13.43
2022-11-18T01:50:38.487Z,14.63
2022-11-18T01:55:41.943Z,15.50
2022-11-18T02:00:43.688Z,14.30
2022-11-18T02:05:47.260Z,14.43
2022-11-18T02:10:49.037Z,15.30
2022-11-18T02:15:58.938Z,15.30
2022-11-18T02:21:08.533Z,16.00
2022-11-18T02:26:42.166Z,15.90
2022-11-18T02:31:48.191Z,16.30
2022-11-18T02:36:52.955Z,16.43
2022-11-18T02:41:54.727Z,16.87
2022-11-18T02:46:59.851Z,16.90
2022-11-18T02:52:01.769Z,16.07
2022-11-18T02:57:03.785Z,18.53
2022-11-18T03:02:06.917Z,20.43
2022-11-18T03:07:11.407Z,18.87
2022-11-18T03:12:17.559Z,19.73
2022-11-18T03:17:23.412Z,20.93
2022-11-18T03:22:27.857Z,21.03
2022-11-18T03:27:31.313Z,22.63
2022-11-18T03:32:37.268Z,23.53
2022-11-18T03:37:39.036Z,23.50
2022-11-18T03:42:41.598Z,24.83
2022-11-18T03:47:46.178Z,22.83
2022-11-18T03:52:48.236Z,24.50
2022-11-18T03:57:52.054Z,23.90
2022-11-18T04:02:55.153Z,24.70
2022-11-18T04:07:58.437Z,24.07
2022-11-18T04:13:06.117Z,23.50
2022-11-18T04:18:10.009Z,24.40
2022-11-18T04:23:11.810Z,23.03
2022-11-18T04:28:13.531Z,23.67
2022-11-18T04:33:16.996Z,22.87
2022-11-18T04:38:21.950Z,23.17
2022-11-18T04:43:24.114Z,23.20
2022-11-18T04:48:27.301Z,22.43
2022-11-18T04:53:29.016Z,23.37
2022-11-18T04:58:30.772Z,19.73
2022-11-18T05:03:33.836Z,21.67
2022-11-18T05:08:35.664Z,21.80
2022-11-18T05:13:37.438Z,20.90
2022-11-18T05:18:40.531Z,20.67
2022-11-18T05:23:42.296Z,21.70
2022-11-18T05:28:44.034Z,20.37
2022-11-18T05:33:47.124Z,21.50
2022-11-18T05:38:49.040Z,20.83
2022-11-18T05:43:50.901Z,22.60
2022-11-18T05:48:54.038Z,20.97
2022-11-18T05:53:55.975Z,22.93
2022-11-18T05:58:57.747Z,22.23
2022-11-18T06:04:01.012Z,21.60
2022-11-18T06:09:04.119Z,22.40
2022-11-18T06:14:07.270Z,23.20
2022-11-18T06:19:10.369Z,25.50
2022-11-18T06:24:12.204Z,25.50
2022-11-18T06:29:14.749Z,27.43
2022-11-18T06:34:18.060Z,26.80
2022-11-18T06:39:20.126Z,26.50
2022-11-18T06:44:22.171Z,25.37
2022-11-18T06:49:25.866Z,26.57
2022-11-18T06:54:27.620Z,26.90
2022-11-18T06:59:29.330Z,27.03
2022-11-18T07:04:34.598Z,26.67
2022-11-18T07:09:36.767Z,25.80
2022-11-18T07:14:38.525Z,27.03
2022-11-18T07:19:41.609Z,28.57
2022-11-18T07:24:43.367Z,26.20
2022-11-18T07:29:45.142Z,26.57
2022-11-18T07:34:48.269Z,24.90
2022-11-18T07:39:50.035Z,26.60
2022-11-18T07:44:51.826Z,24.90
2022-11-18T07:49:54.915Z,26.00
2022-11-18T07:54:56.659Z,25.43
2022-11-18T07:59:58.399Z,27.63
2022-11-18T08:05:01.545Z,26.07
2022-11-18T08:10:03.714Z,25.13
2022-11-18T08:15:06.171Z,24.93
2022-11-18T08:20:10.706Z,28.10
2022-11-18T08:25:12.811Z,25.40
2022-11-18T08:30:14.664Z,25.47
2022-11-18T08:35:17.712Z,26.63
2022-11-18T08:40:19.497Z,25.43
2022-11-18T08:45:21.362Z,22.90
2022-11-18T08:50:24.520Z,23.40
2022-11-18T08:55:26.295Z,24.07
2022-11-18T09:00:28.027Z,24.80
2022-11-18T09:05:31.140Z,24.43
2022-11-18T09:10:34.402Z,25.23
2022-11-18T09:15:36.155Z,26.07
2022-11-18T09:20:39.237Z,24.73
2022-11-18T09:25:40.950Z,25.13
2022-11-18T09:30:42.764Z,26.57
2022-11-18T09:35:45.848Z,25.50
2022-11-18T09:40:51.124Z,25.70
2022-11-18T09:45:54.829Z,26.53
2022-11-18T09:50:57.998Z,26.30
2022-11-18T09:55:59.757Z,24.60
2022-11-18T10:01:01.626Z,23.83
2022-11-18T10:06:11.120Z,22.80
2022-11-18T10:11:14.531Z,23.30
2022-11-18T10:16:28.002Z,22.60
2022-11-18T10:21:38.462Z,24.37
2022-11-18T10:26:41.105Z,23.43
2022-11-18T10:31:54.237Z,21.63
2022-11-18T10:37:02.512Z,19.37
2022-11-18T10:42:05.579Z,17.60
2022-11-18T10:47:16.434Z,18.70
2022-11-18T10:52:19.709Z,18.90
2022-11-18T10:57:22.072Z,19.83
2022-11-18T11:02:26.912Z,22.30
2022-11-18T11:07:32.762Z,22.33
2022-11-18T11:12:35.389Z,21.57
2022-11-18T11:17:39.068Z,20.30
2022-11-18T11:22:42.829Z,18.30
2022-11-18T11:33:22.464Z,17.83
2022-11-18T11:38:32.873Z,18.63
2022-11-18T11:43:37.574Z,18.60
2022-11-18T11:48:45.688Z,18.13
2022-11-18T11:54:02.352Z,18.57
2022-11-18T11:59:08.981Z,18.40
2022-11-18T12:04:19.115Z,18.47
2022-11-18T12:09:27.012Z,19.10
2022-11-18T12:14:33.718Z,19.80
2022-11-18T12:19:37.895Z,19.27
2022-11-18T12:24:42.360Z,20.57
2022-11-18T12:29:55.217Z,22.47
2022-11-18T12:35:00.960Z,21.40
2022-11-18T12:40:04.781Z,23.20
2022-11-18T12:45:39.610Z,23.80
2022-11-18T12:50:47.852Z,24.47
2022-11-18T12:55:50.985Z,23.27
2022-11-18T13:01:06.147Z,24.30
2022-11-18T13:06:14.684Z,26.30
2022-11-18T13:11:36.573Z,26.20
2022-11-18T13:16:57.177Z,26.93
2022-11-18T13:22:18.266Z,27.00
2022-11-18T13:27:28.396Z,26.70
2022-11-18T13:32:30.229Z,24.83
2022-11-18T13:37:34.025Z,26.77
2022-11-18T13:42:37.091Z,25.40
2022-11-18T13:47:41.117Z,22.97
2022-11-18T13:52:44.432Z,22.57
2022-11-18T13:57:48.332Z,23.17
2022-11-18T14:02:54.550Z,21.20
2022-11-18T14:08:01.634Z,19.80
2022-11-18T14:13:05.243Z,18.70
2022-11-18T14:18:17.169Z,17.80
2022-11-18T14:23:19.063Z,19.90
2022-11-18T14:28:23.480Z,19.53
2022-11-18T14:33:25.432Z,19.07
2022-11-18T14:38:52.363Z,17.37
2022-11-18T14:44:04.379Z,19.03
2022-11-18T14:49:09.472Z,19.17
2022-11-18T14:54:13.064Z,18.67
2022-11-18T14:59:17.054Z,20.80
2022-11-18T15:04:20.791Z,20.50
2022-11-18T15:09:23.051Z,20.07
2022-11-18T15:14:26.392Z,21.00
2022-11-18T15:19:28.337Z,20.07
2022-11-18T15:24:30.140Z,19.87
2022-11-18T15:29:33.965Z,19.60
2022-11-18T15:34:35.754Z,19.03
2022-11-18T15:39:37.624Z,18.90
2022-11-18T15:44:40.655Z,19.43
2022-11-18T15:49:45.194Z,18.20
2022-11-18T15:54:47.102Z,18.87
2022-11-18T15:59:50.150Z,16.17
2022-11-18T16:04:51.941Z,21.27
2022-11-18T16:10:12.159Z,16.73
2022-11-18T16:15:34.870Z,15.53
2022-11-18T16:20:36.939Z,16.17
2022-11-18T16:25:43.523Z,15.77
2022-11-18T16:31:07.615Z,15.70
2022-11-18T16:36:09.410Z,15.47
2022-11-18T16:41:30.012Z,14.90
2022-11-18T16:46:33.833Z,13.57
2022-11-18T16:51:35.739Z,14.70
2022-11-18T16:56:37.590Z,13.80
2022-11-18T17:01:40.834Z,13.50
2022-11-18T17:06:42.677Z,14.00
2022-11-18T17:11:44.581Z,13.77
2022-11-18T17:17:02.386Z,13.40
2022-11-18T17:22:14.863Z,14.20
2022-11-18T17:27:49.310Z,13.00
2022-11-18T17:32:56.026Z,13.77
2022-11-18T17:37:59.007Z,13.87
2022-11-18T17:43:05.047Z,13.30
2022-11-18T17:48:09.009Z,14.53
2022-11-18T17:53:20.897Z,12.03
2022-11-18T17:58:23.885Z,11.00
2022-11-18T18:03:26.969Z,11.40
2022-11-18T18:09:21.856Z,12.30
2022-11-18T18:17:13.542Z,11.13
2022-11-18T18:22:15.275Z,10.47
2022-11-18T18:27:17.031Z,11.17
2022-11-18T18:32:20.219Z,11.10
2022-11-18T18:37:22.102Z,10.87
2022-11-18T18:42:23.835Z,11.23
2022-11-18T18:47:26.949Z,10.90
2022-11-18T18:52:30.755Z,10.50
2022-11-18T18:57:32.503Z,11.63
2022-11-18T19:02:35.718Z,11.63
2022-11-18T19:07:37.640Z,11.13
2022-11-18T19:12:52.218Z,11.00
2022-11-18T19:17:55.370Z,11.40
2022-11-18T19:22:59.170Z,11.50
2022-11-18T19:28:00.898Z,11.13
2022-11-18T19:33:04.318Z,11.53
2022-11-18T19:38:06.079Z,12.07
2022-11-18T19:43:07.794Z,10.80
2022-11-18T19:48:10.889Z,11.93
2022-11-18T19:53:31.228Z,11.97
2022-11-18T19:58:33.229Z,11.43
2022-11-18T20:03:36.405Z,19.77
2022-11-18T20:08:38.765Z,16.20
2022-11-18T20:13:40.858Z,15.23
2022-11-18T20:18:44.552Z,16.27
2022-11-18T20:23:46.458Z,14.63
2022-11-18T20:28:53.016Z,12.90
2022-11-18T20:34:00.229Z,12.73
2022-11-18T20:39:03.563Z,12.87
2022-11-18T20:44:05.743Z,11.60
2022-11-18T20:49:09.005Z,11.53
2022-11-18T20:54:10.865Z,10.63
2022-11-18T20:59:12.815Z,11.47
2022-11-18T21:04:15.928Z,10.77
2022-11-18T21:09:17.847Z,10.03
2022-11-18T21:14:25.571Z,9.50
2022-11-18T21:19:29.082Z,11.63
2022-11-18T21:24:31.787Z,11.33
2022-11-18T21:29:33.572Z,10.60
2022-11-18T21:34:36.731Z,15.33
2022-11-18T21:39:38.499Z,18.93
2022-11-18T21:44:40.240Z,13.73
2022-11-18T21:49:43.296Z,12.30
2022-11-18T21:54:45.066Z,11.63
2022-11-18T21:59:46.945Z,11.00
2022-11-18T22:04:53.062Z,10.73
2022-11-18T22:09:55.288Z,10.80
2022-11-18T22:14:57.161Z,12.00
2022-11-18T22:20:00.329Z,11.13
2022-11-18T22:25:02.096Z,10.93
2022-11-18T22:30:04.884Z,11.97
2022-11-18T22:35:09.418Z,12.80
2022-11-18T22:40:12.220Z,12.57
2022-11-18T22:45:14.150Z,10.70
2022-11-18T22:50:17.475Z,11.83
2022-11-18T22:55:19.233Z,12.37
2022-11-18T23:00:21.142Z,10.90
2022-11-18T23:05:24.277Z,10.10
2022-11-18T23:10:26.024Z,10.50
2022-11-18T23:15:27.992Z,11.33
2022-11-18T23:20:31.056Z,12.10
2022-11-18T23:25:32.866Z,11.93
2022-11-18T23:30:34.610Z,11.90
2022-11-18T23:35:37.754Z,11.27
2022-11-18T23:40:39.455Z,11.53
2022-11-18T23:45:41.915Z,11.10
2022-11-18T23:50:52.318Z,9.30
2022-11-18T23:55:54.073Z,11.30
